Time;durP1;ratioP1;P1;durP2;ratioP2;P2;SDS_P1;SDS_P2;PMS_P1;PMS_P2;Temp;Humidity;BMP_temperature;BMP_pressure;BME280_temperature;BME280_humidity;BME280_pressure;Samples;Min_cycle;Max_cycle;Signal;HPM_P1;HPM_P2
2021/10/21 00:01:04;;;;;;;175.77;162.27;;;15.90;99.90;;;;;;5037297;28;20943;-81
2021/10/21 00:03:59;;;;;;;153.90;141.07;;;16.00;99.90;;;;;;5037269;28;20185;-80
2021/10/21 00:06:26;;;;;;;130.03;118.17;;;16.10;99.90;;;;;;5036618;28;20419;-80
2021/10/21 00:08:54;;;;;;;187.83;171.93;;;16.10;99.90;;;;;;5036476;28;20420;-79
2021/10/21 00:11:20;;;;;;;120.43;108.77;;;16.30;99.90;;;;;;5037106;28;20488;-81
2021/10/21 00:13:46;;;;;;;97.40;85.40;;;16.40;99.90;;;;;;5035971;28;20436;-80
2021/10/21 00:16:12;;;;;;;110.43;99.17;;;16.50;99.90;;;;;;5037505;28;20657;-81
2021/10/21 00:18:37;;;;;;;114.33;102.57;;;16.50;99.90;;;;;;5037362;28;20197;-81
2021/10/21 00:21:03;;;;;;;178.43;164.13;;;16.60;99.90;;;;;;5037501;28;20629;-80
2021/10/21 00:23:28;;;;;;;198.13;183.23;;;16.60;99.90;;;;;;5036681;28;20162;-81
2021/10/21 00:25:54;;;;;;;215.20;199.97;;;16.50;99.90;;;;;;5037620;28;20213;-80
2021/10/21 00:28:23;;;;;;;179.13;165.23;;;16.40;99.90;;;;;;5105114;22;20232;-80
2021/10/21 00:30:48;;;;;;;138.97;126.00;;;16.40;99.90;;;;;;5037975;28;20162;-79
2021/10/21 00:33:14;;;;;;;120.63;108.67;;;16.30;99.90;;;;;;5038234;28;20399;-79
2021/10/21 00:35:40;;;;;;;120.80;108.57;;;16.10;99.90;;;;;;5020756;28;20194;-79
2021/10/21 00:38:05;;;;;;;323.13;302.03;;;16.10;99.90;;;;;;5037924;28;20183;-79
2021/10/21 00:40:31;;;;;;;352.47;330.07;;;15.90;99.90;;;;;;5037724;28;20587;-80
2021/10/21 00:42:57;;;;;;;422.03;396.63;;;15.90;99.90;;;;;;5037800;28;20254;-79
2021/10/21 00:45:22;;;;;;;434.37;409.50;;;15.80;99.90;;;;;;5037266;28;20165;-79
2021/10/21 00:47:48;;;;;;;458.67;433.17;;;15.80;99.90;;;;;;5019388;28;20187;-79
2021/10/21 00:50:14;;;;;;;475.27;448.50;;;15.60;99.90;;;;;;5037520;28;20197;-79
2021/10/21 00:52:39;;;;;;;496.93;469.97;;;15.60;99.90;;;;;;5037823;28;20169;-79
2021/10/21 00:55:07;;;;;;;444.37;419.10;;;15.60;99.90;;;;;;5037294;28;20259;-79
2021/10/21 00:57:33;;;;;;;449.87;424.60;;;15.60;99.90;;;;;;5037133;28;20561;-79
2021/10/21 00:59:58;;;;;;;398.20;375.60;;;15.60;99.90;;;;;;5037391;28;20436;-79
2021/10/21 01:02:24;;;;;;;368.43;346.73;;;15.50;99.90;;;;;;5037320;28;20180;-79
2021/10/21 01:04:50;;;;;;;301.90;283.60;;;15.50;99.90;;;;;;5037381;28;20408;-80
2021/10/21 01:07:16;;;;;;;276.13;259.13;;;15.40;99.90;;;;;;5036732;28;20208;-79
2021/10/21 01:09:45;;;;;;;245.83;230.27;;;15.40;99.90;;;;;;5036454;28;20166;-79
2021/10/21 01:12:12;;;;;;;330.27;310.97;;;15.40;99.90;;;;;;5037202;28;20404;-79
2021/10/21 01:14:38;;;;;;;455.43;430.73;;;15.40;99.90;;;;;;5019426;28;20416;-79
2021/10/21 01:17:07;;;;;;;431.33;407.77;;;15.40;99.90;;;;;;5037523;28;20427;-80
2021/10/21 01:19:33;;;;;;;388.97;367.23;;;15.40;99.90;;;;;;5036476;28;20451;-79
2021/10/21 01:21:58;;;;;;;305.83;286.77;;;15.30;99.90;;;;;;5037012;28;20780;-80
2021/10/21 01:24:25;;;;;;;185.90;171.13;;;15.30;99.90;;;;;;5036861;28;20176;-80
2021/10/21 01:26:53;;;;;;;127.80;115.77;;;15.40;1.00;;;;;;5019502;28;20188;-80
2021/10/21 01:29:23;;;;;;;89.37;57.63;;;15.30;1.00;;;;;;5036829;28;20424;-80
2021/10/21 01:31:50;;;;;;;70.80;18.20;;;15.20;99.90;;;;;;5019297;28;20419;-80
2021/10/21 01:34:15;;;;;;;88.77;51.20;;;15.10;99.90;;;;;;5037048;28;20776;-80
2021/10/21 01:36:43;;;;;;;84.90;45.43;;;15.00;99.90;;;;;;5020096;28;20418;-80
2021/10/21 01:39:11;;;;;;;100.03;86.40;;;14.90;99.90;;;;;;5018972;28;20200;-79
2021/10/21 01:41:37;;;;;;;90.87;58.43;;;14.90;99.90;;;;;;5019411;28;20431;-79
2021/10/21 01:44:06;;;;;;;87.13;58.47;;;14.80;99.90;;;;;;5019383;28;20412;-79
2021/10/21 01:46:34;;;;;;;80.70;42.80;;;14.80;99.90;;;;;;5036835;28;20404;-79
2021/10/21 01:49:00;;;;;;;89.03;56.20;;;14.80;99.90;;;;;;5019362;28;20486;-80
2021/10/21 01:51:26;;;;;;;97.73;68.97;;;14.80;99.90;;;;;;5019283;28;20422;-80
2021/10/21 01:53:51;;;;;;;72.10;12.10;;;14.80;99.90;;;;;;5036469;28;20189;-79
2021/10/21 01:56:17;;;;;;;73.40;16.63;;;14.80;99.90;;;;;;5037325;28;20629;-79
2021/10/21 01:58:43;;;;;;;71.27;16.37;;;14.70;99.90;;;;;;5036938;28;20197;-80
2021/10/21 02:01:08;;;;;;;70.80;14.73;;;14.70;99.90;;;;;;5037301;28;20219;-80
2021/10/21 02:03:34;;;;;;;71.17;15.90;;;14.60;99.90;;;;;;5018248;28;20185;-79
2021/10/21 02:06:00;;;;;;;70.37;13.00;;;14.50;99.90;;;;;;5036402;28;20169;-79
2021/10/21 02:08:26;;;;;;;75.30;14.20;;;14.30;99.90;;;;;;5036650;28;20188;-79
2021/10/21 02:10:51;;;;;;;71.23;14.20;;;14.40;99.90;;;;;;5035872;28;20212;-78
2021/10/21 02:13:17;;;;;;;73.97;14.93;;;14.30;99.90;;;;;;5018705;28;20408;-80
2021/10/21 02:15:43;;;;;;;68.90;10.97;;;14.30;99.90;;;;;;5036328;28;20165;-80
2021/10/21 02:18:08;;;;;;;71.87;14.20;;;14.30;99.90;;;;;;5035831;28;20185;-79
2021/10/21 02:20:34;;;;;;;67.90;7.80;;;14.40;99.90;;;;;;5036176;28;20256;-79
2021/10/21 02:23:00;;;;;;;67.87;8.97;;;14.30;99.90;;;;;;5036215;28;20259;-79
2021/10/21 02:25:26;;;;;;;68.13;9.50;;;14.20;99.90;;;;;;5036081;28;20685;-80
2021/10/21 02:27:51;;;;;;;72.90;9.10;;;14.20;99.90;;;;;;5035780;28;20243;-80
2021/10/21 02:30:18;;;;;;;71.17;9.43;;;14.20;99.90;;;;;;5018091;28;20438;-79
2021/10/21 02:32:45;;;;;;;68.57;6.50;;;14.20;99.90;;;;;;5021864;28;20177;-79
2021/10/21 02:35:11;;;;;;;66.80;6.30;;;14.20;99.90;;;;;;5039189;28;20415;-79
2021/10/21 02:37:38;;;;;;;68.60;7.13;;;14.10;99.90;;;;;;5039606;28;20419;-79
2021/10/21 02:40:06;;;;;;;68.00;7.83;;;14.10;99.90;;;;;;5039687;28;20440;-79
2021/10/21 02:42:32;;;;;;;67.10;10.87;;;14.10;99.90;;;;;;5039405;28;20419;-79
2021/10/21 02:44:57;;;;;;;67.90;9.80;;;14.00;99.90;;;;;;5039336;28;20412;-79
2021/10/21 02:47:23;;;;;;;75.80;12.87;;;14.00;99.90;;;;;;5039311;28;20407;-79
2021/10/21 02:49:49;;;;;;;70.90;15.13;;;14.00;99.90;;;;;;5039380;28;20166;-78
2021/10/21 02:52:14;;;;;;;71.73;17.50;;;14.00;99.90;;;;;;5039463;28;20173;-78
2021/10/21 02:54:40;;;;;;;72.57;14.57;;;14.00;99.90;;;;;;5039421;28;20181;-79
2021/10/21 02:57:05;;;;;;;74.43;16.77;;;14.00;99.90;;;;;;5039391;28;20173;-78
2021/10/21 02:59:31;;;;;;;70.63;16.83;;;14.00;99.90;;;;;;5039145;28;20220;-78
2021/10/21 03:01:57;;;;;;;72.33;16.60;;;13.90;99.90;;;;;;5038825;28;20165;-78
2021/10/21 03:04:22;;;;;;;71.37;16.53;;;14.00;99.90;;;;;;5039219;28;20166;-78
2021/10/21 03:06:48;;;;;;;72.37;16.30;;;14.00;99.90;;;;;;5038814;28;20162;-78
2021/10/21 03:09:14;;;;;;;73.40;17.13;;;14.00;99.90;;;;;;5039240;28;20197;-79
2021/10/21 03:11:39;;;;;;;70.77;15.57;;;13.90;99.90;;;;;;5039040;28;20256;-78
2021/10/21 03:14:05;;;;;;;71.17;15.63;;;13.90;99.90;;;;;;5039015;28;20204;-78
2021/10/21 03:16:34;;;;;;;74.03;14.77;;;13.90;99.90;;;;;;5039045;28;20170;-78
2021/10/21 03:19:02;;;;;;;74.43;24.17;;;13.90;99.90;;;;;;5020927;28;20289;-78
2021/10/21 03:21:27;;;;;;;71.63;14.80;;;13.90;99.90;;;;;;5038681;28;20404;-78
2021/10/21 03:23:53;;;;;;;70.90;17.27;;;13.90;99.90;;;;;;5038695;28;20454;-79
2021/10/21 03:26:18;;;;;;;72.17;17.00;;;13.90;99.90;;;;;;5038336;28;20177;-78
2021/10/21 03:28:45;;;;;;;72.00;16.70;;;13.90;99.90;;;;;;5037945;28;20228;-78
2021/10/21 03:31:11;;;;;;;88.80;46.07;;;13.90;99.90;;;;;;5038599;28;20400;-78
2021/10/21 03:33:36;;;;;;;73.40;16.70;;;13.90;99.90;;;;;;5038748;28;20568;-78
2021/10/21 03:36:02;;;;;;;72.30;18.00;;;14.00;99.90;;;;;;5038650;28;20176;-78
2021/10/21 03:38:29;;;;;;;73.47;20.67;;;14.00;99.90;;;;;;5038242;28;20216;-78
2021/10/21 03:40:54;;;;;;;73.03;21.77;;;14.00;99.90;;;;;;5037873;28;20165;-79
2021/10/21 03:43:22;;;;;;;97.70;70.07;;;14.00;99.90;;;;;;5019820;28;20475;-79
2021/10/21 03:45:48;;;;;;;94.80;71.50;;;13.90;99.90;;;;;;5037662;28;20165;-78
2021/10/21 03:48:14;;;;;;;99.10;85.30;;;13.80;99.90;;;;;;5038121;28;20420;-78
2021/10/21 03:50:40;;;;;;;90.50;73.00;;;13.70;99.90;;;;;;5038068;28;20407;-78
2021/10/21 03:53:09;;;;;;;91.43;75.07;;;13.80;99.90;;;;;;5037905;28;20411;-78
2021/10/21 03:55:37;;;;;;;90.50;72.35;;;13.70;99.90;;;;;;5020180;28;20169;-78
2021/10/21 03:58:02;;;;;;;95.35;84.88;;;13.70;99.90;;;;;;5020567;28;20192;-78
2021/10/21 04:00:28;;;;;;;94.60;80.43;;;13.50;99.90;;;;;;5038150;28;20169;-78
2021/10/21 04:02:54;;;;;;;83.67;53.20;;;13.40;99.90;;;;;;5038070;28;20157;-78
2021/10/21 04:05:22;;;;;;;81.77;50.00;;;13.40;99.90;;;;;;5038201;28;20620;-78
2021/10/21 04:07:48;;;;;;;84.03;51.13;;;13.30;99.90;;;;;;5037532;28;20185;-78
2021/10/21 04:10:14;;;;;;;86.72;47.70;;;13.30;99.90;;;;;;5038165;28;20698;-79
2021/10/21 04:12:40;;;;;;;79.90;42.43;;;13.30;99.90;;;;;;5038423;28;20177;-78
2021/10/21 04:15:06;;;;;;;79.93;41.60;;;13.40;99.90;;;;;;5020496;28;20173;-79
2021/10/21 04:17:32;;;;;;;84.97;52.58;;;13.40;99.90;;;;;;5020434;28;20204;-78
2021/10/21 04:19:58;;;;;;;96.27;70.57;;;13.40;99.90;;;;;;5038411;28;20196;-80
2021/10/21 04:22:24;;;;;;;102.03;79.37;;;13.40;99.90;;;;;;5037815;28;20404;-80
2021/10/21 04:24:49;;;;;;;84.77;47.07;;;13.30;99.90;;;;;;5037837;28;20224;-80
2021/10/21 04:27:15;;;;;;;86.37;46.97;;;13.40;99.90;;;;;;5037583;28;20553;-80
2021/10/21 04:29:41;;;;;;;75.03;27.47;;;13.40;99.90;;;;;;5037770;28;20166;-80
2021/10/21 04:32:07;;;;;;;77.77;34.87;;;13.30;99.90;;;;;;5038005;28;20607;-80
2021/10/21 04:34:32;;;;;;;75.00;28.00;;;13.40;99.90;;;;;;5037685;28;20396;-80
2021/10/21 04:36:59;;;;;;;80.67;44.00;;;13.40;99.90;;;;;;5037556;28;20166;-80
2021/10/21 04:39:24;;;;;;;79.07;31.85;;;13.50;99.90;;;;;;5020365;28;20550;-80
2021/10/21 04:41:53;;;;;;;77.77;35.80;;;13.50;99.90;;;;;;5037642;28;20173;-80
2021/10/21 04:44:19;;;;;;;96.13;70.40;;;13.50;99.90;;;;;;5020284;28;20521;-80
2021/10/21 04:46:44;;;;;;;93.00;77.30;;;13.50;99.90;;;;;;5037749;28;20172;-81
2021/10/21 04:49:10;;;;;;;89.00;63.30;;;13.50;99.90;;;;;;5019886;28;20193;-80
2021/10/21 04:51:36;;;;;;;87.37;61.80;;;13.60;99.90;;;;;;5037506;28;20173;-80
2021/10/21 04:54:01;;;;;;;87.20;61.63;;;13.60;99.90;;;;;;5037472;28;20169;-80
2021/10/21 04:56:58;;;;;;;89.40;59.17;;;13.60;99.90;;;;;;5037697;28;20173;-80
2021/10/21 04:59:23;;;;;;;77.25;35.42;;;13.50;99.90;;;;;;5019736;28;20198;-80
2021/10/21 05:01:49;;;;;;;85.47;55.57;;;13.50;99.90;;;;;;5037148;28;20191;-80
2021/10/21 05:04:15;;;;;;;85.60;52.73;;;13.50;99.90;;;;;;5037552;28;20700;-81
2021/10/21 05:06:40;;;;;;;86.83;62.23;;;13.50;99.90;;;;;;5037437;28;20561;-80
2021/10/21 05:09:06;;;;;;;92.10;61.77;;;13.50;99.90;;;;;;5036915;28;20193;-82
2021/10/21 05:11:32;;;;;;;81.03;45.40;;;13.40;99.90;;;;;;5037737;28;20639;-80
2021/10/21 05:13:57;;;;;;;88.00;62.13;;;13.40;99.90;;;;;;5037248;28;20633;-80
2021/10/21 05:16:23;;;;;;;86.27;59.13;;;13.40;99.90;;;;;;5037187;28;20169;-80
2021/10/21 05:18:48;;;;;;;82.00;45.73;;;13.40;99.90;;;;;;5037756;28;20675;-80
2021/10/21 05:21:14;;;;;;;82.57;48.97;;;13.40;99.90;;;;;;5019559;28;20671;-80
2021/10/21 05:23:40;;;;;;;84.70;55.40;;;13.30;99.90;;;;;;5036957;28;20571;-80
2021/10/21 05:26:06;;;;;;;90.95;72.00;;;13.40;99.90;;;;;;5037541;28;20165;-79
2021/10/21 05:28:32;;;;;;;132.97;116.30;;;13.40;99.90;;;;;;5036863;28;20204;-81
2021/10/21 05:30:57;;;;;;;80.87;47.77;;;13.40;99.90;;;;;;5037981;28;20165;-79
2021/10/21 05:33:25;;;;;;;92.00;73.33;;;13.40;99.90;;;;;;5037771;28;20574;-79
2021/10/21 05:35:51;;;;;;;104.10;92.55;;;13.30;99.90;;;;;;5019696;28;20181;-79
2021/10/21 05:38:16;;;;;;;85.17;51.27;;;13.20;99.90;;;;;;5037082;28;20181;-80
2021/10/21 05:40:42;;;;;;;85.93;61.90;;;13.20;99.90;;;;;;5019332;28;20458;-80
2021/10/21 05:43:08;;;;;;;93.23;75.23;;;13.20;99.90;;;;;;5037468;28;20336;-81
2021/10/21 05:45:33;;;;;;;85.73;61.20;;;13.20;99.90;;;;;;5019002;28;20189;-80
2021/10/21 05:47:59;;;;;;;83.53;53.70;;;13.20;99.90;;;;;;5037150;28;20212;-80
2021/10/21 05:50:25;;;;;;;84.67;56.20;;;13.20;99.90;;;;;;5036487;28;20181;-80
2021/10/21 05:52:50;;;;;;;79.90;43.13;;;13.20;99.90;;;;;;5037887;28;20160;-80
2021/10/21 05:55:16;;;;;;;75.90;30.90;;;13.30;99.90;;;;;;5037642;28;20203;-80
2021/10/21 05:57:45;;;;;;;152.83;139.20;;;13.20;99.90;;;;;;5019375;28;20583;-82
2021/10/21 06:00:11;;;;;;;281.23;261.92;;;12.90;99.90;;;;;;5036866;28;20246;-79
2021/10/21 06:02:37;;;;;;;360.05;338.05;;;12.80;99.90;;;;;;5036777;28;20176;-82
2021/10/21 06:05:04;;;;;;;314.87;295.47;;;12.50;99.90;;;;;;5037845;28;20173;-80
2021/10/21 06:07:30;;;;;;;249.77;232.73;;;12.40;99.90;;;;;;5040475;28;20185;-80
2021/10/21 06:09:57;;;;;;;244.37;228.10;;;12.30;99.90;;;;;;5041078;28;20165;-81
2021/10/21 06:12:26;;;;;;;419.35;389.63;;;12.20;99.90;;;;;;5023350;28;20169;-81
2021/10/21 06:14:52;;;;;;;299.27;277.95;;;12.10;99.90;;;;;;5024037;28;20272;-81
2021/10/21 06:17:19;;;;;;;184.00;170.05;;;12.00;99.90;;;;;;5040617;28;20158;-81
2021/10/21 06:19:45;;;;;;;294.13;273.67;;;11.90;99.90;;;;;;5040526;28;20547;-80
2021/10/21 06:22:13;;;;;;;491.50;458.77;;;11.90;99.90;;;;;;5040592;28;20161;-80
2021/10/21 06:24:38;;;;;;;378.90;355.27;;;11.80;99.90;;;;;;5040116;28;20192;-81
2021/10/21 06:27:05;;;;;;;654.77;610.37;;;11.70;99.90;;;;;;5107239;22;20224;-84
2021/10/21 06:29:31;;;;;;;451.73;425.60;;;11.70;99.90;;;;;;5021533;28;20178;-83
2021/10/21 06:31:57;;;;;;;574.73;537.80;;;11.60;99.90;;;;;;5020996;28;20245;-83
2021/10/21 06:34:39;;;;;;;;;;;;;;;;;;;;;
2021/10/21 06:37:17;;;;;;;616.83;579.97;;;11.50;99.90;;;;;;5020911;28;20232;-82
2021/10/21 06:39:58;;;;;;;486.67;460.33;;;11.40;99.90;;;;;;5019900;28;20186;-82
2021/10/21 06:42:35;;;;;;;492.15;466.02;;;11.40;99.90;;;;;;5019606;28;20146;-83
2021/10/21 06:45:00;;;;;;;635.97;599.80;;;11.40;99.90;;;;;;5019921;28;20150;-82
2021/10/21 06:47:33;;;;;;;710.77;664.60;;;11.30;99.90;;;;;;5018836;28;20188;-81
2021/10/21 06:50:26;;;;;;;590.38;555.33;;;11.30;99.90;;;;;;5020262;28;20166;-84
2021/10/21 06:52:55;;;;;;;552.35;521.88;;;11.40;99.90;;;;;;4990477;28;20182;-81
2021/10/21 06:59:14;;;;;;;559.85;527.85;;;11.30;99.90;;;;;;5016615;28;20221;-87
2021/10/21 07:01:41;;;;;;;442.13;418.77;;;11.20;99.90;;;;;;4998093;28;20236;-83
2021/10/21 07:04:48;;;;;;;566.38;535.72;;;11.20;99.90;;;;;;5020937;28;20150;-82
2021/10/21 07:07:40;;;;;;;543.00;513.28;;;11.20;99.90;;;;;;5012190;23;20637;-84
2021/10/21 07:10:15;;;;;;;484.55;458.45;;;11.20;99.90;;;;;;5015330;28;20205;-82
2021/10/21 07:12:45;;;;;;;506.67;478.77;;;11.20;99.90;;;;;;5023480;28;20146;-83
2021/10/21 07:15:25;;;;;;;482.85;454.88;;;11.20;99.90;;;;;;5021374;28;20165;-82
2021/10/21 07:18:48;;;;;;;445.30;421.13;;;11.10;99.90;;;;;;5021060;28;20185;-84
2021/10/21 07:21:25;;;;;;;456.10;431.48;;;11.00;99.90;;;;;;5010239;28;20192;-85
2021/10/21 07:24:23;;;;;;;532.25;500.95;;;10.90;99.90;;;;;;5022784;28;20157;-85
2021/10/21 07:33:27;;;;;;;500.45;470.00;;;10.90;99.90;;;;;;5038935;28;20156;-86
2021/10/21 07:36:02;;;;;;;480.05;450.67;;;10.80;99.90;;;;;;4993253;28;20205;-85
2021/10/21 07:39:36;;;;;;;394.15;370.88;;;10.90;99.90;;;;;;5041380;28;20216;-86
2021/10/21 07:45:25;;;;;;;372.73;350.48;;;10.90;99.90;;;;;;4997613;28;20170;-85
2021/10/21 07:48:27;;;;;;;414.23;390.00;;;10.90;99.90;;;;;;5062718;23;20217;-84
2021/10/21 07:51:42;;;;;;;;;;;;;;;;;;;;;
2021/10/21 07:54:57;;;;;;;290.77;271.75;;;11.10;99.90;;;;;;4996940;28;20673;-84
2021/10/21 08:03:17;;;;;;;285.85;266.25;;;11.30;99.90;;;;;;4805773;26;20213;-83
2021/10/21 08:08:55;;;;;;;190.90;176.15;;;11.40;99.90;;;;;;4949260;28;20257;-83
2021/10/21 08:11:28;;;;;;;193.27;177.90;;;11.50;99.90;;;;;;4997245;28;20194;-84
2021/10/21 08:14:16;;;;;;;146.73;133.80;;;11.50;99.90;;;;;;4997590;28;20244;-83
2021/10/21 08:17:13;;;;;;;129.52;117.43;;;11.60;99.90;;;;;;4990999;28;20534;-83
2021/10/21 08:20:11;;;;;;;;;;;;;;;;;;;;;
2021/10/21 08:22:47;;;;;;;210.15;194.43;;;11.70;99.90;;;;;;5019137;28;20242;-83
2021/10/21 08:25:17;;;;;;;298.58;280.60;;;11.80;99.90;;;;;;5018448;28;20161;-82
2021/10/21 08:27:54;;;;;;;256.10;238.93;;;11.80;99.90;;;;;;5017635;28;20181;-82
2021/10/21 08:30:23;;;;;;;301.73;280.88;;;11.80;99.90;;;;;;5017709;28;20220;-82
2021/10/21 08:33:15;;;;;;;223.40;207.80;;;11.80;99.90;;;;;;5016086;28;20518;-81
2021/10/21 08:35:41;;;;;;;259.70;242.90;;;11.90;99.90;;;;;;5017041;28;20526;-81
2021/10/21 08:38:07;;;;;;;266.80;248.68;;;11.90;99.90;;;;;;5016826;28;20196;-81
2021/10/21 08:40:40;;;;;;;162.20;148.02;;;12.00;99.90;;;;;;5017373;28;20597;-82
2021/10/21 08:43:10;;;;;;;193.15;177.90;;;12.00;99.90;;;;;;5016168;28;20180;-81
2021/10/21 08:45:39;;;;;;;167.63;153.68;;;12.10;99.90;;;;;;5017431;28;20256;-82
2021/10/21 08:48:15;;;;;;;;;;;;;;;;;;;;;
2021/10/21 08:50:47;;;;;;;91.95;47.70;;;12.20;99.90;;;;;;5006963;28;20566;-81
2021/10/21 08:53:13;;;;;;;100.10;61.00;;;12.20;99.90;;;;;;5016189;28;20200;-81
2021/10/21 08:55:45;;;;;;;104.03;58.60;;;12.20;99.90;;;;;;5015900;28;20165;-82
2021/10/21 08:58:10;;;;;;;75.38;21.45;;;12.20;99.90;;;;;;5017263;28;20186;-81
2021/10/21 09:00:53;;;;;;;72.23;18.37;;;12.20;99.90;;;;;;5015697;28;20240;-81
2021/10/21 09:04:16;;;;;;;78.18;15.45;;;12.30;99.90;;;;;;5016181;28;20412;-81
2021/10/21 09:08:58;;;;;;;84.88;40.60;;;12.40;99.90;;;;;;5017119;28;20697;-81
2021/10/21 09:11:25;;;;;;;85.18;52.83;;;12.50;99.90;;;;;;5017059;28;20255;-81
2021/10/21 09:14:18;;;;;;;84.88;36.70;;;12.60;99.90;;;;;;5017051;28;20182;-81
2021/10/21 09:16:58;;;;;;;74.40;17.55;;;12.60;99.90;;;;;;5017547;28;20158;-82
2021/10/21 09:19:29;;;;;;;77.22;19.65;;;12.70;99.90;;;;;;5015588;28;20692;-82
2021/10/21 09:22:01;;;;;;;75.70;18.90;;;12.60;99.90;;;;;;5015423;28;20174;-81
2021/10/21 09:24:53;;;;;;;72.40;17.10;;;12.70;99.90;;;;;;5015777;28;20196;-82
2021/10/21 09:28:05;;;;;;;72.88;14.50;;;12.70;99.90;;;;;;5015052;28;20247;-82
2021/10/21 09:30:50;;;;;;;72.25;12.85;;;12.90;99.90;;;;;;5017162;28;20197;-82
2021/10/21 09:33:16;;;;;;;69.05;13.38;;;12.90;99.90;;;;;;5016314;28;20252;-81
2021/10/21 09:36:01;;;;;;;73.90;15.63;;;13.00;99.90;;;;;;5015884;28;20200;-81
2021/10/21 09:38:46;;;;;;;71.72;7.00;;;13.10;99.90;;;;;;5015033;28;20268;-82
2021/10/21 09:41:25;;;;;;;70.82;8.48;;;13.10;99.90;;;;;;5017806;28;20150;-81
2021/10/21 09:43:57;;;;;;;73.60;16.02;;;13.30;99.90;;;;;;5020421;28;20172;-81
2021/10/21 09:46:41;;;;;;;83.97;39.95;;;13.50;99.90;;;;;;5020604;28;20185;-82
2021/10/21 09:49:44;;;;;;;72.45;20.25;;;13.60;98.50;;;;;;5020038;28;20272;-81
2021/10/21 09:52:24;;;;;;;74.93;22.23;;;13.50;99.90;;;;;;4960574;28;20179;-81
2021/10/21 09:55:09;;;;;;;73.97;24.67;;;13.60;99.90;;;;;;5018347;28;20656;-82
2021/10/21 09:57:44;;;;;;;75.72;25.33;;;13.60;99.90;;;;;;5019560;28;20482;-81
2021/10/21 10:00:15;;;;;;;73.05;21.65;;;13.50;99.90;;;;;;5019086;28;20196;-81
2021/10/21 10:03:14;;;;;;;72.13;17.50;;;13.60;99.90;;;;;;5019334;28;20165;-82
2021/10/21 10:06:22;;;;;;;74.30;24.25;;;13.70;99.90;;;;;;4998435;28;20679;-82
2021/10/21 10:09:15;;;;;;;72.95;19.33;;;13.60;99.90;;;;;;5064763;22;20251;-81
2021/10/21 10:15:14;;;;;;;69.13;11.82;;;13.50;99.90;;;;;;5039731;28;20207;-82
2021/10/21 10:18:00;;;;;;;70.35;7.40;;;13.30;99.90;;;;;;5039831;28;20272;-82
2021/10/21 10:21:16;;;;;;;69.03;7.10;;;13.20;99.90;;;;;;5017460;28;20274;-82
2021/10/21 10:24:12;;;;;;;76.70;12.27;;;13.20;99.90;;;;;;5020805;28;20226;-82
2021/10/21 10:29:51;;;;;;;76.30;19.13;;;13.60;99.90;;;;;;5044661;22;20712;-82
2021/10/21 10:32:45;;;;;;;73.72;17.63;;;13.80;99.90;;;;;;5035677;28;20173;-82
2021/10/21 10:35:56;;;;;;;74.57;23.63;;;13.80;99.90;;;;;;5039944;28;20169;-82
2021/10/21 10:38:39;;;;;;;73.82;20.60;;;13.80;99.90;;;;;;5039376;28;20273;-82
2021/10/21 10:41:12;;;;;;;78.60;21.43;;;13.70;99.90;;;;;;5037314;28;20184;-81
2021/10/21 10:43:44;;;;;;;71.85;20.45;;;13.70;99.90;;;;;;5040266;28;20372;-82
2021/10/21 10:46:51;;;;;;;77.90;22.73;;;13.70;99.90;;;;;;5039728;28;20156;-82
2021/10/21 10:49:45;;;;;;;71.25;18.30;;;13.60;99.90;;;;;;5039145;28;20478;-82
2021/10/21 10:53:06;;;;;;;68.93;12.68;;;13.70;99.90;;;;;;5039343;28;20647;-82
2021/10/21 10:55:52;;;;;;;71.85;12.73;;;13.80;99.10;;;;;;4997692;28;20186;-82
2021/10/21 10:58:26;;;;;;;70.72;9.65;;;13.80;99.90;;;;;;4997845;28;20717;-82
2021/10/21 11:00:56;;;;;;;68.77;8.07;;;14.00;98.30;;;;;;4997309;28;20197;-81
2021/10/21 11:09:51;;;;;;;72.80;14.75;;;14.20;96.40;;;;;;4987185;28;20205;-82
2021/10/21 11:13:15;;;;;;;70.10;16.10;;;14.30;95.00;;;;;;4996679;28;20626;-82
2021/10/21 11:15:42;;;;;;;70.10;17.00;;;14.30;93.30;;;;;;4989493;28;20421;-82
2021/10/21 11:18:20;;;;;;;74.00;19.10;;;14.30;93.60;;;;;;5029573;28;20432;-82
2021/10/21 11:20:58;;;;;;;72.30;18.95;;;14.30;91.50;;;;;;5038704;28;20149;-82
2021/10/21 11:23:33;;;;;;;71.60;18.27;;;14.30;92.40;;;;;;5037569;28;20161;-82
2021/10/21 11:26:23;;;;;;;71.80;15.87;;;14.40;91.90;;;;;;5039302;28;20403;-82
2021/10/21 11:28:52;;;;;;;69.87;14.10;;;14.40;92.60;;;;;;5069853;23;21058;-82
2021/10/21 11:31:35;;;;;;;70.90;16.90;;;14.40;92.30;;;;;;5038657;28;20426;-82
2021/10/21 11:34:06;;;;;;;72.00;17.83;;;14.40;92.60;;;;;;5039424;28;20382;-81
2021/10/21 11:36:45;;;;;;;70.40;17.10;;;14.40;94.60;;;;;;5038722;28;20377;-82
2021/10/21 11:39:16;;;;;;;71.60;18.67;;;14.40;93.60;;;;;;5038818;28;20454;-82
2021/10/21 11:41:45;;;;;;;70.60;15.50;;;14.40;93.30;;;;;;5038747;28;20437;-82
2021/10/21 11:44:23;;;;;;;75.30;14.47;;;14.30;94.00;;;;;;5038379;28;20400;-82
2021/10/21 11:47:09;;;;;;;70.20;10.70;;;14.30;97.00;;;;;;5039177;28;20875;-82
2021/10/21 11:49:47;;;;;;;71.87;11.50;;;14.30;97.00;;;;;;5039116;28;20932;-82
2021/10/21 11:52:41;;;;;;;70.43;11.27;;;14.20;96.60;;;;;;5039033;28;20391;-82
2021/10/21 11:55:27;;;;;;;70.30;13.20;;;14.20;92.60;;;;;;5038428;28;20408;-81
2021/10/21 11:58:24;;;;;;;74.20;15.00;;;14.40;94.00;;;;;;5037014;28;20431;-82
2021/10/21 12:01:08;;;;;;;71.17;12.40;;;14.50;94.90;;;;;;5036499;28;20418;-81
2021/10/21 12:03:42;;;;;;;70.27;10.40;;;14.50;94.20;;;;;;5038028;28;20468;-82
2021/10/21 12:06:42;;;;;;;69.10;12.57;;;14.30;95.90;;;;;;5038507;28;20435;-82
2021/10/21 12:09:09;;;;;;;68.37;9.47;;;14.20;95.30;;;;;;5039842;28;20411;-82
2021/10/21 12:11:42;;;;;;;68.30;9.47;;;14.20;97.70;;;;;;5040806;28;20430;-82
2021/10/21 12:14:11;;;;;;;71.97;12.47;;;14.20;98.90;;;;;;5040678;28;20446;-82
2021/10/21 12:16:53;;;;;;;72.50;14.27;;;14.20;99.90;;;;;;5040020;28;20980;-82
2021/10/21 12:19:21;;;;;;;73.23;19.30;;;14.10;99.90;;;;;;5039944;28;20547;-82
2021/10/21 12:21:47;;;;;;;73.37;21.23;;;14.10;99.90;;;;;;5038791;28;20404;-81
2021/10/21 12:24:58;;;;;;;73.20;20.35;;;13.80;99.90;;;;;;5038559;28;20404;-82
2021/10/21 12:27:28;;;;;;;76.07;23.08;;;13.60;99.90;;;;;;5085858;22;20354;-84
2021/10/21 12:30:16;;;;;;;74.07;23.63;;;13.40;99.90;;;;;;5038265;28;20224;-83
2021/10/21 12:32:57;;;;;;;;;;;;;;;;;;;;;
2021/10/21 12:36:32;;;;;;;112.20;93.22;;;13.20;99.90;;;;;;4996962;28;20394;-83
2021/10/21 12:39:31;;;;;;;;;;;;;;;;;;;;;
2021/10/21 12:42:21;;;;;;;101.72;87.97;;;12.70;99.90;;;;;;5037856;28;20691;-83
2021/10/21 12:44:59;;;;;;;95.95;57.70;;;12.30;99.90;;;;;;5020048;28;20177;-83
2021/10/21 12:47:37;;;;;;;87.55;54.15;;;12.00;99.90;;;;;;5038212;28;20153;-83
2021/10/21 12:50:15;;;;;;;122.18;105.50;;;11.80;99.90;;;;;;5039119;28;20148;-83
2021/10/21 12:52:46;;;;;;;303.88;284.20;;;11.70;99.90;;;;;;5039068;28;20509;-83
2021/10/21 12:55:13;;;;;;;333.48;313.85;;;11.40;99.90;;;;;;5039046;28;20193;-83
2021/10/21 12:57:47;;;;;;;301.88;282.58;;;11.30;99.90;;;;;;5038821;28;20186;-84
2021/10/21 13:00:23;;;;;;;191.07;176.68;;;11.10;99.90;;;;;;5021138;28;20603;-83
2021/10/21 13:03:06;;;;;;;237.50;221.45;;;11.10;99.90;;;;;;5039243;28;20165;-84
2021/10/21 13:05:33;;;;;;;297.20;278.58;;;11.10;99.90;;;;;;5039164;28;20605;-84
2021/10/21 13:07:59;;;;;;;325.10;305.67;;;11.20;99.90;;;;;;5038250;28;20217;-84
2021/10/21 13:10:26;;;;;;;351.27;330.42;;;11.20;99.90;;;;;;5038593;28;20177;-83
2021/10/21 13:12:52;;;;;;;363.88;341.92;;;11.30;99.90;;;;;;5020538;28;20211;-84
2021/10/21 13:15:19;;;;;;;306.88;288.00;;;11.30;99.90;;;;;;5038193;28;20169;-83
2021/10/21 13:17:45;;;;;;;369.95;348.50;;;11.30;99.90;;;;;;5020469;28;20189;-83
2021/10/21 13:20:10;;;;;;;342.50;321.90;;;11.30;99.90;;;;;;5037706;28;20197;-83
2021/10/21 13:22:36;;;;;;;279.37;261.70;;;11.30;99.90;;;;;;5037346;28;20462;-84
2021/10/21 13:25:08;;;;;;;352.10;331.37;;;11.20;99.90;;;;;;5037213;28;20471;-83
2021/10/21 13:27:37;;;;;;;327.48;307.90;;;11.20;99.90;;;;;;5019850;28;20478;-84
2021/10/21 13:30:04;;;;;;;341.95;321.70;;;11.20;99.90;;;;;;5037739;28;20207;-84
2021/10/21 13:32:30;;;;;;;407.25;384.05;;;11.30;99.90;;;;;;5019962;28;20169;-84
2021/10/21 13:34:56;;;;;;;409.52;385.80;;;11.20;99.90;;;;;;5021895;28;20541;-84
2021/10/21 13:37:22;;;;;;;375.33;354.00;;;11.30;99.90;;;;;;5041110;28;20161;-84